Alliance, NC

3:57 AM EDT on July 31, 2014 (GMT -0400)
Arapahoe, NC (KNCSOUTH16) Elev 75 ft | 35.01 °N, 76.82 °W | Change Station

Current weather conditions updated 11 minutes ago

Clear
Clear
67.5 °F
Feels Like 67.5 °F
N
0.0
Wind Variable Wind from East
Gusts 0.0 mph

Today is forecast to be nearly the same temperature as yesterday.

Today
High -- | Low -- °F
--% Chance of Precip.
Yesterday
High -- | Low -- °F
Precip. -- in
6:15 AM 8:11 PM
Waxing Crescent, 16% visible
Pressure 30.08 in
Visibility 10.0 miles
Clouds Clear
Dew Point 66 °F
Humidity 95%
Rainfall 0.00 in
Snow Depth Not available.
UV 0.0 out of 12
Pollen 5.80 out of 12
Air Quality Not available.
Flu Activity Not available.
METAR KEWN 310654Z AUTO 00000KT 10SM CLR 22/19 A3008 RMK AO2 SLP186 T02170194

More Conditions Fewer Conditions

Pressure 30.08 in
Visibility 10.0 miles
Clouds Clear
Dew Point 66 °F
Humidity 95%
Rainfall 0.00 in
Snow Depth Not available.
UV 0.0 out of 12
Pollen 5.80 out of 12
Air Quality Not available.
Flu Activity Not available.
METAR KEWN 310654Z AUTO 00000KT 10SM CLR 22/19 A3008 RMK AO2 SLP186 T02170194

More Conditions Fewer Conditions

10-Day Weather Forecast

Almanac

Astronomy

Jul. 31, 2014 Rise Set
Actual Time 6:15 AM EDT 8:11 PM EDT
Civil Twilight 5:47 AM EDT 8:39 PM EDT
Nautical Twilight 5:13 AM EDT 9:12 PM EDT
Astronomical Twilight 4:37 AM EDT 9:48 PM EDT
Moon 10:29 AM EDT 10:35 PM EDT
Length of Visible Light 14h 51m
Length of Day
13h 55m
Tomorrow will be 1m 38s shorter.
Waxing Crescent, 16% of the Moon is Illuminated
Today
Waxing Crescent
Aug 3
First Quarter
Aug 10
Full
Aug 17
Last Quarter
Aug 25
New

Today's Extremes

State Highs State Lows

Community

WunderPhotos

Upload Photos

1,739,258 photos uploaded!

Nearby

Snow Depth

Station Depth Elevation
No new snow has been reported.

Earthquake Activity

City Distance Mag. Time & Date
No recent earthquake activity has been reported nearby.
Minimum magnitude displayed is 2.5.

Coastal Water Temperatures

Place Temperature
No Stations Reporting

Nearby Weather Stations

Station Location Temp. Heat Index Dew Point Humidity Wind Precip. Elev Updated Type
Arapahoe, NC, South Arapahoe, NC 67.5 °F - 66 °F 95% East  at  0.0 mph 0.00 in / hr 75 ft 3:45 AM EDT Normal
Oriental, NC, Oriental, NC 74.2 °F 74 °F 69 °F 84% North  at  0.0 mph - / hr 13 ft 3:48 AM EDT Normal
Oriental/Greens Creek, NC, Oriental, NC 76.6 °F 78 °F 71 °F 83% SW  at  1.0 mph 0.00 in / hr 12 ft 3:57 AM EDT Rapid Fire
Faifield Harbour, New Bern, NC 69.8 °F - 69 °F 96% NE  at  1.6 mph 0.00 in / hr 13 ft 3:57 AM EDT Rapid Fire
Janiero, Araphoe, NC 77.0 °F 79 °F 70 °F 78% ESE  at  10.0 mph 0.00 in / hr 5 ft 3:47 AM EDT Normal
The Lakes At Antioch, New Bern, NC 64.7 °F - 64 °F 96% North  at  0.0 mph 0.00 in / hr 10 ft 3:53 AM EDT Normal
Carolina Colours - Waterleaf, New Bern, NC 68.7 °F - 67 °F 95% NW  at  0.0 mph 0.00 in / hr 43 ft 3:57 AM EDT Rapid Fire

Show More Stations Show Fewer Stations